This is the latest recevied weather packets stored in our database for station/object K5RWS. If no packets are shown the sender has not sent any weather packets the latest 10 day(s).
| Time | Temp. | Humidity | Pressure | Rain* | Wind** | Luminosity | Snow |
|---|---|---|---|---|---|---|---|
| 1778016248 | 16.11° C | 47% | 1013.3 hPa | 0 mm | - | 199 W/m² | - |
| 1778015945 | 16.11° C | 45% | 1013.4 hPa | 0 mm | - | 246 W/m² | - |
| 1778015643 | 16.11° C | 45% | 1013.1 hPa | 0 mm | - | 298 W/m² | - |
| 1778015339 | 16.11° C | 45% | 1013.3 hPa | 0 mm | - | 289 W/m² | - |
| 1778015036 | 16.11° C | 45% | 1013.3 hPa | 0 mm | - | 381 W/m² | - |
| 1778014733 | 17.22° C | 42% | 1013.2 hPa | 0 mm | - | 323 W/m² | - |
| 1778014431 | 17.22° C | 42% | 1013.4 hPa | 0 mm | - | 481 W/m² | - |
| 1778014128 | 16.67° C | 45% | 1013.4 hPa | 0 mm | - | 640 W/m² | - |
| 1778013825 | 17.22° C | 42% | 1013.6 hPa | 0 mm | - | 651 W/m² | - |
| 1778013522 | 16.67° C | 43% | 1013.6 hPa | 0 mm | - | 717 W/m² | - |
| 1778013219 | 16.67° C | 44% | 1013.5 hPa | 0 mm | - | 725 W/m² | - |
| 1778012915 | 15.56° C | 45% | 1013.6 hPa | 0 mm | - | 749 W/m² | - |
| 1778012611 | 16.11° C | 45% | 1013.9 hPa | 0 mm | - | 739 W/m² | - |
| 1778012308 | 14.44° C | 48% | 1014 hPa | 0 mm | - | 554 W/m² | - |
| 1778012006 | 15° C | 47% | 1013.8 hPa | 0 mm | - | 751 W/m² | - |
| 1778011704 | 15° C | 47% | 1014 hPa | 0 mm | - | 620 W/m² | - |
| 1778011400 | 14.44° C | 48% | 1014.1 hPa | 0 mm | - | 576 W/m² | - |
| 1778011095 | 14.44° C | 49% | 1014.2 hPa | 0 mm | - | 346 W/m² | - |
| 1778010794 | 14.44° C | 48% | 1014.5 hPa | 0 mm | - | 295 W/m² | - |
| 1778010490 | 14.44° C | 47% | 1014.1 hPa | 0 mm | - | 314 W/m² | - |
| 1778010188 | 15° C | 47% | 1014.3 hPa | 0 mm | - | 534 W/m² | - |
| 1778009883 | 14.44° C | 45% | 1014.3 hPa | 0 mm | - | 446 W/m² | - |
| 1778009581 | 14.44° C | 46% | 1014.5 hPa | 0 mm | - | 342 W/m² | - |
| 1778009279 | 14.44° C | 45% | 1014.6 hPa | 0 mm | - | 321 W/m² | - |
| 1778008976 | 15.56° C | 42% | 1014.3 hPa | 0 mm | - | 729 W/m² | - |
* Rain latest hour (hover to see other rain measurements)
** Current wind speed in m/s (hover to see current wind gust speed)